sensor_id;sensor_type;location;lat;lon;timestamp;P1;durP1;ratioP1;P2;durP2;ratioP2
26756;SDS011;23848;49.798;10.228;2022-12-11T00:01:13;20.15;;;13.18;;
26756;SDS011;23848;49.798;10.228;2022-12-11T00:03:47;22.00;;;14.07;;
26756;SDS011;23848;49.798;10.228;2022-12-11T00:06:16;22.77;;;13.88;;
26756;SDS011;23848;49.798;10.228;2022-12-11T00:08:44;19.42;;;12.85;;
26756;SDS011;23848;49.798;10.228;2022-12-11T00:11:14;22.15;;;13.82;;
26756;SDS011;23848;49.798;10.228;2022-12-11T00:13:43;23.15;;;13.95;;
26756;SDS011;23848;49.798;10.228;2022-12-11T00:16:11;20.92;;;13.85;;
26756;SDS011;23848;49.798;10.228;2022-12-11T00:18:41;22.30;;;13.35;;
26756;SDS011;23848;49.798;10.228;2022-12-11T00:21:15;21.15;;;13.80;;
26756;SDS011;23848;49.798;10.228;2022-12-11T00:23:43;22.02;;;13.15;;
26756;SDS011;23848;49.798;10.228;2022-12-11T00:26:12;21.75;;;13.18;;
26756;SDS011;23848;49.798;10.228;2022-12-11T00:28:41;22.90;;;14.32;;
26756;SDS011;23848;49.798;10.228;2022-12-11T00:31:11;23.35;;;14.02;;
26756;SDS011;23848;49.798;10.228;2022-12-11T00:33:40;24.13;;;15.10;;
26756;SDS011;23848;49.798;10.228;2022-12-11T00:36:10;27.85;;;15.60;;
26756;SDS011;23848;49.798;10.228;2022-12-11T00:38:40;24.30;;;14.77;;
26756;SDS011;23848;49.798;10.228;2022-12-11T00:41:14;16.58;;;9.80;;
26756;SDS011;23848;49.798;10.228;2022-12-11T00:43:45;23.90;;;14.85;;
26756;SDS011;23848;49.798;10.228;2022-12-11T00:46:26;26.23;;;14.57;;
26756;SDS011;23848;49.798;10.228;2022-12-11T00:48:55;25.23;;;15.20;;
26756;SDS011;23848;49.798;10.228;2022-12-11T00:51:24;25.90;;;15.45;;
26756;SDS011;23848;49.798;10.228;2022-12-11T00:53:56;26.70;;;15.30;;
26756;SDS011;23848;49.798;10.228;2022-12-11T00:56:25;24.98;;;15.82;;
26756;SDS011;23848;49.798;10.228;2022-12-11T00:58:53;25.05;;;14.20;;
26756;SDS011;23848;49.798;10.228;2022-12-11T01:01:22;25.15;;;14.05;;
26756;SDS011;23848;49.798;10.228;2022-12-11T01:03:51;24.42;;;14.95;;
26756;SDS011;23848;49.798;10.228;2022-12-11T01:06:21;25.75;;;14.45;;
26756;SDS011;23848;49.798;10.228;2022-12-11T01:08:50;22.70;;;12.73;;
26756;SDS011;23848;49.798;10.228;2022-12-11T01:11:41;24.67;;;14.20;;
26756;SDS011;23848;49.798;10.228;2022-12-11T01:14:09;22.77;;;13.27;;
26756;SDS011;23848;49.798;10.228;2022-12-11T01:16:39;22.17;;;13.10;;
26756;SDS011;23848;49.798;10.228;2022-12-11T01:19:08;25.33;;;13.35;;
26756;SDS011;23848;49.798;10.228;2022-12-11T01:21:36;22.95;;;12.88;;
26756;SDS011;23848;49.798;10.228;2022-12-11T01:24:06;22.40;;;12.98;;
26756;SDS011;23848;49.798;10.228;2022-12-11T01:26:34;23.60;;;13.05;;
26756;SDS011;23848;49.798;10.228;2022-12-11T01:29:04;24.08;;;13.20;;
26756;SDS011;23848;49.798;10.228;2022-12-11T01:31:33;23.75;;;12.93;;
26756;SDS011;23848;49.798;10.228;2022-12-11T01:34:01;23.25;;;13.35;;
26756;SDS011;23848;49.798;10.228;2022-12-11T01:36:30;21.60;;;11.95;;
26756;SDS011;23848;49.798;10.228;2022-12-11T01:38:58;23.60;;;12.65;;
26756;SDS011;23848;49.798;10.228;2022-12-11T01:41:26;22.33;;;12.85;;
26756;SDS011;23848;49.798;10.228;2022-12-11T01:43:56;21.88;;;12.43;;
26756;SDS011;23848;49.798;10.228;2022-12-11T01:46:26;22.50;;;13.20;;
26756;SDS011;23848;49.798;10.228;2022-12-11T01:48:56;22.77;;;12.88;;
26756;SDS011;23848;49.798;10.228;2022-12-11T01:51:25;21.15;;;12.52;;
26756;SDS011;23848;49.798;10.228;2022-12-11T01:53:54;21.85;;;12.93;;
26756;SDS011;23848;49.798;10.228;2022-12-11T01:56:24;20.13;;;12.05;;
26756;SDS011;23848;49.798;10.228;2022-12-11T01:58:53;19.30;;;11.65;;
26756;SDS011;23848;49.798;10.228;2022-12-11T02:01:27;19.30;;;11.70;;
26756;SDS011;23848;49.798;10.228;2022-12-11T02:03:58;22.77;;;13.00;;
26756;SDS011;23848;49.798;10.228;2022-12-11T02:06:29;22.92;;;12.50;;
26756;SDS011;23848;49.798;10.228;2022-12-11T02:08:58;17.83;;;11.35;;
26756;SDS011;23848;49.798;10.228;2022-12-11T02:11:27;20.95;;;11.35;;
26756;SDS011;23848;49.798;10.228;2022-12-11T02:14:02;19.55;;;12.63;;
26756;SDS011;23848;49.798;10.228;2022-12-11T02:16:34;18.83;;;11.43;;
26756;SDS011;23848;49.798;10.228;2022-12-11T02:19:07;19.92;;;11.93;;
26756;SDS011;23848;49.798;10.228;2022-12-11T02:21:43;22.20;;;12.80;;
26756;SDS011;23848;49.798;10.228;2022-12-11T02:24:18;21.05;;;12.00;;
26756;SDS011;23848;49.798;10.228;2022-12-11T02:26:56;20.75;;;11.88;;
26756;SDS011;23848;49.798;10.228;2022-12-11T02:29:33;20.83;;;12.32;;
26756;SDS011;23848;49.798;10.228;2022-12-11T02:32:03;15.43;;;9.30;;
26756;SDS011;23848;49.798;10.228;2022-12-11T02:34:36;22.63;;;11.65;;
26756;SDS011;23848;49.798;10.228;2022-12-11T02:37:06;22.48;;;14.35;;
26756;SDS011;23848;49.798;10.228;2022-12-11T02:39:37;23.05;;;13.02;;
26756;SDS011;23848;49.798;10.228;2022-12-11T02:42:06;20.80;;;13.15;;
26756;SDS011;23848;49.798;10.228;2022-12-11T02:44:37;22.08;;;12.93;;
26756;SDS011;23848;49.798;10.228;2022-12-11T02:47:10;22.52;;;12.20;;
26756;SDS011;23848;49.798;10.228;2022-12-11T02:49:41;23.88;;;13.20;;
26756;SDS011;23848;49.798;10.228;2022-12-11T02:52:10;22.77;;;12.40;;
26756;SDS011;23848;49.798;10.228;2022-12-11T02:54:39;20.70;;;13.13;;
26756;SDS011;23848;49.798;10.228;2022-12-11T02:57:13;22.08;;;12.95;;
26756;SDS011;23848;49.798;10.228;2022-12-11T02:59:46;22.50;;;13.07;;
26756;SDS011;23848;49.798;10.228;2022-12-11T03:02:15;20.17;;;12.18;;
26756;SDS011;23848;49.798;10.228;2022-12-11T03:04:44;21.35;;;13.07;;
26756;SDS011;23848;49.798;10.228;2022-12-11T03:07:14;20.80;;;11.85;;
26756;SDS011;23848;49.798;10.228;2022-12-11T03:09:45;20.60;;;12.63;;
26756;SDS011;23848;49.798;10.228;2022-12-11T03:12:16;20.40;;;12.02;;
26756;SDS011;23848;49.798;10.228;2022-12-11T03:14:47;19.83;;;12.07;;
26756;SDS011;23848;49.798;10.228;2022-12-11T03:17:17;21.50;;;11.77;;
26756;SDS011;23848;49.798;10.228;2022-12-11T03:19:46;20.42;;;12.70;;
26756;SDS011;23848;49.798;10.228;2022-12-11T03:22:16;20.00;;;11.25;;
26756;SDS011;23848;49.798;10.228;2022-12-11T03:24:46;19.02;;;12.27;;
26756;SDS011;23848;49.798;10.228;2022-12-11T03:27:18;19.15;;;11.05;;
26756;SDS011;23848;49.798;10.228;2022-12-11T03:29:50;18.60;;;10.85;;
26756;SDS011;23848;49.798;10.228;2022-12-11T03:32:21;20.30;;;11.60;;
26756;SDS011;23848;49.798;10.228;2022-12-11T03:34:53;19.65;;;11.60;;
26756;SDS011;23848;49.798;10.228;2022-12-11T03:37:23;20.35;;;12.18;;
26756;SDS011;23848;49.798;10.228;2022-12-11T03:39:58;19.33;;;11.32;;
26756;SDS011;23848;49.798;10.228;2022-12-11T03:42:29;25.58;;;15.07;;
26756;SDS011;23848;49.798;10.228;2022-12-11T03:44:59;24.20;;;14.05;;
26756;SDS011;23848;49.798;10.228;2022-12-11T03:47:29;28.63;;;15.65;;
26756;SDS011;23848;49.798;10.228;2022-12-11T03:49:58;30.48;;;17.02;;
26756;SDS011;23848;49.798;10.228;2022-12-11T03:52:27;26.90;;;14.35;;
26756;SDS011;23848;49.798;10.228;2022-12-11T03:54:57;25.30;;;14.38;;
26756;SDS011;23848;49.798;10.228;2022-12-11T03:57:44;23.60;;;12.52;;
26756;SDS011;23848;49.798;10.228;2022-12-11T04:00:15;23.15;;;13.10;;
26756;SDS011;23848;49.798;10.228;2022-12-11T04:02:45;19.52;;;11.30;;
26756;SDS011;23848;49.798;10.228;2022-12-11T04:05:39;19.75;;;11.82;;
26756;SDS011;23848;49.798;10.228;2022-12-11T04:08:08;18.55;;;11.25;;
26756;SDS011;23848;49.798;10.228;2022-12-11T04:10:36;17.83;;;10.80;;
26756;SDS011;23848;49.798;10.228;2022-12-11T04:13:06;19.75;;;12.43;;
26756;SDS011;23848;49.798;10.228;2022-12-11T04:15:36;20.38;;;11.73;;
26756;SDS011;23848;49.798;10.228;2022-12-11T04:18:05;18.25;;;10.73;;
26756;SDS011;23848;49.798;10.228;2022-12-11T04:20:52;20.70;;;12.65;;
26756;SDS011;23848;49.798;10.228;2022-12-11T04:23:38;21.10;;;11.40;;
26756;SDS011;23848;49.798;10.228;2022-12-11T04:26:24;20.65;;;12.18;;
26756;SDS011;23848;49.798;10.228;2022-12-11T04:28:53;21.85;;;12.10;;
26756;SDS011;23848;49.798;10.228;2022-12-11T04:31:23;21.33;;;11.65;;
26756;SDS011;23848;49.798;10.228;2022-12-11T04:33:51;22.83;;;10.98;;
26756;SDS011;23848;49.798;10.228;2022-12-11T04:36:19;19.00;;;11.05;;
26756;SDS011;23848;49.798;10.228;2022-12-11T04:38:48;21.83;;;10.50;;
26756;SDS011;23848;49.798;10.228;2022-12-11T04:41:16;18.77;;;10.65;;
26756;SDS011;23848;49.798;10.228;2022-12-11T04:43:45;21.33;;;12.55;;
26756;SDS011;23848;49.798;10.228;2022-12-11T04:46:14;19.27;;;11.90;;
26756;SDS011;23848;49.798;10.228;2022-12-11T04:48:44;20.02;;;11.45;;
26756;SDS011;23848;49.798;10.228;2022-12-11T04:51:17;22.45;;;12.23;;
26756;SDS011;23848;49.798;10.228;2022-12-11T04:53:46;21.73;;;11.73;;
26756;SDS011;23848;49.798;10.228;2022-12-11T04:56:15;19.52;;;11.88;;
26756;SDS011;23848;49.798;10.228;2022-12-11T04:58:43;18.80;;;10.85;;
26756;SDS011;23848;49.798;10.228;2022-12-11T05:01:12;21.23;;;11.23;;
26756;SDS011;23848;49.798;10.228;2022-12-11T05:03:41;20.90;;;11.05;;
26756;SDS011;23848;49.798;10.228;2022-12-11T05:06:11;17.77;;;10.38;;
26756;SDS011;23848;49.798;10.228;2022-12-11T05:08:40;17.48;;;11.43;;
26756;SDS011;23848;49.798;10.228;2022-12-11T05:11:11;20.02;;;12.02;;
26756;SDS011;23848;49.798;10.228;2022-12-11T05:13:40;19.00;;;10.43;;
26756;SDS011;23848;49.798;10.228;2022-12-11T05:16:10;19.60;;;10.65;;
26756;SDS011;23848;49.798;10.228;2022-12-11T05:18:38;20.75;;;10.80;;
26756;SDS011;23848;49.798;10.228;2022-12-11T05:21:08;19.65;;;11.50;;
26756;SDS011;23848;49.798;10.228;2022-12-11T05:23:40;18.83;;;10.35;;
26756;SDS011;23848;49.798;10.228;2022-12-11T05:26:10;23.13;;;11.55;;
26756;SDS011;23848;49.798;10.228;2022-12-11T05:28:39;19.65;;;11.25;;
26756;SDS011;23848;49.798;10.228;2022-12-11T05:31:09;21.15;;;11.50;;
26756;SDS011;23848;49.798;10.228;2022-12-11T05:33:38;22.20;;;11.85;;
26756;SDS011;23848;49.798;10.228;2022-12-11T05:36:07;21.52;;;13.13;;
26756;SDS011;23848;49.798;10.228;2022-12-11T05:38:36;22.90;;;12.10;;
26756;SDS011;23848;49.798;10.228;2022-12-11T05:41:06;20.58;;;11.20;;
26756;SDS011;23848;49.798;10.228;2022-12-11T05:43:35;24.48;;;12.27;;
26756;SDS011;23848;49.798;10.228;2022-12-11T05:46:05;23.75;;;12.60;;
26756;SDS011;23848;49.798;10.228;2022-12-11T05:48:34;21.42;;;12.65;;
26756;SDS011;23848;49.798;10.228;2022-12-11T05:51:03;22.27;;;11.65;;
26756;SDS011;23848;49.798;10.228;2022-12-11T05:53:32;25.73;;;13.20;;
26756;SDS011;23848;49.798;10.228;2022-12-11T05:56:00;25.77;;;13.85;;
26756;SDS011;23848;49.798;10.228;2022-12-11T05:58:31;28.00;;;13.68;;
26756;SDS011;23848;49.798;10.228;2022-12-11T06:00:59;27.35;;;14.65;;
26756;SDS011;23848;49.798;10.228;2022-12-11T06:03:28;25.85;;;14.50;;
26756;SDS011;23848;49.798;10.228;2022-12-11T06:06:01;23.80;;;13.32;;
26756;SDS011;23848;49.798;10.228;2022-12-11T06:08:29;28.23;;;15.60;;
26756;SDS011;23848;49.798;10.228;2022-12-11T06:11:02;22.63;;;13.05;;
26756;SDS011;23848;49.798;10.228;2022-12-11T06:13:32;25.15;;;14.27;;
26756;SDS011;23848;49.798;10.228;2022-12-11T06:16:01;25.10;;;13.40;;
26756;SDS011;23848;49.798;10.228;2022-12-11T06:18:30;24.23;;;12.57;;
26756;SDS011;23848;49.798;10.228;2022-12-11T06:20:58;25.50;;;12.65;;
26756;SDS011;23848;49.798;10.228;2022-12-11T06:23:27;28.33;;;14.63;;
26756;SDS011;23848;49.798;10.228;2022-12-11T06:25:55;24.65;;;13.70;;
26756;SDS011;23848;49.798;10.228;2022-12-11T06:28:24;25.73;;;14.00;;
26756;SDS011;23848;49.798;10.228;2022-12-11T06:30:53;24.33;;;13.90;;
26756;SDS011;23848;49.798;10.228;2022-12-11T06:33:25;26.73;;;15.10;;
26756;SDS011;23848;49.798;10.228;2022-12-11T06:35:53;26.10;;;14.77;;
26756;SDS011;23848;49.798;10.228;2022-12-11T06:38:22;28.15;;;15.13;;
26756;SDS011;23848;49.798;10.228;2022-12-11T06:40:53;29.52;;;15.95;;
26756;SDS011;23848;49.798;10.228;2022-12-11T06:43:22;26.63;;;14.07;;
26756;SDS011;23848;49.798;10.228;2022-12-11T06:45:51;25.30;;;14.90;;
26756;SDS011;23848;49.798;10.228;2022-12-11T06:48:27;28.70;;;15.40;;
26756;SDS011;23848;49.798;10.228;2022-12-11T06:50:55;26.45;;;14.70;;
26756;SDS011;23848;49.798;10.228;2022-12-11T06:53:24;28.95;;;14.40;;
26756;SDS011;23848;49.798;10.228;2022-12-11T06:55:53;27.33;;;15.02;;
26756;SDS011;23848;49.798;10.228;2022-12-11T06:58:21;26.13;;;14.48;;
26756;SDS011;23848;49.798;10.228;2022-12-11T07:00:49;25.98;;;13.75;;
26756;SDS011;23848;49.798;10.228;2022-12-11T07:03:18;25.70;;;14.10;;
26756;SDS011;23848;49.798;10.228;2022-12-11T07:05:48;28.45;;;14.75;;
26756;SDS011;23848;49.798;10.228;2022-12-11T07:08:16;31.95;;;15.95;;
26756;SDS011;23848;49.798;10.228;2022-12-11T07:10:45;26.63;;;15.35;;
26756;SDS011;23848;49.798;10.228;2022-12-11T07:13:13;27.45;;;14.77;;
26756;SDS011;23848;49.798;10.228;2022-12-11T07:15:42;27.42;;;14.98;;
26756;SDS011;23848;49.798;10.228;2022-12-11T07:18:11;26.90;;;14.68;;
26756;SDS011;23848;49.798;10.228;2022-12-11T07:20:39;24.75;;;14.05;;
26756;SDS011;23848;49.798;10.228;2022-12-11T07:23:09;30.73;;;15.95;;
26756;SDS011;23848;49.798;10.228;2022-12-11T07:25:38;28.05;;;14.73;;
26756;SDS011;23848;49.798;10.228;2022-12-11T07:28:06;25.50;;;14.23;;
26756;SDS011;23848;49.798;10.228;2022-12-11T07:30:41;23.38;;;13.38;;
26756;SDS011;23848;49.798;10.228;2022-12-11T07:33:10;25.20;;;14.02;;
26756;SDS011;23848;49.798;10.228;2022-12-11T07:35:38;25.42;;;14.82;;
26756;SDS011;23848;49.798;10.228;2022-12-11T07:38:07;27.67;;;14.95;;
26756;SDS011;23848;49.798;10.228;2022-12-11T07:40:36;32.85;;;19.98;;
26756;SDS011;23848;49.798;10.228;2022-12-11T07:43:05;34.70;;;19.05;;
26756;SDS011;23848;49.798;10.228;2022-12-11T07:45:33;30.25;;;16.65;;
26756;SDS011;23848;49.798;10.228;2022-12-11T07:48:02;28.98;;;15.98;;
26756;SDS011;23848;49.798;10.228;2022-12-11T07:50:31;31.95;;;16.70;;
26756;SDS011;23848;49.798;10.228;2022-12-11T07:53:05;28.35;;;16.45;;
26756;SDS011;23848;49.798;10.228;2022-12-11T07:55:33;28.00;;;16.80;;
26756;SDS011;23848;49.798;10.228;2022-12-11T07:58:03;29.10;;;15.65;;
26756;SDS011;23848;49.798;10.228;2022-12-11T08:00:33;28.77;;;16.77;;
26756;SDS011;23848;49.798;10.228;2022-12-11T08:03:01;27.38;;;14.82;;
26756;SDS011;23848;49.798;10.228;2022-12-11T08:05:30;28.20;;;15.13;;
26756;SDS011;23848;49.798;10.228;2022-12-11T08:07:59;26.25;;;14.20;;
26756;SDS011;23848;49.798;10.228;2022-12-11T08:10:30;24.90;;;15.38;;
26756;SDS011;23848;49.798;10.228;2022-12-11T08:12:58;23.23;;;12.45;;
26756;SDS011;23848;49.798;10.228;2022-12-11T08:15:30;27.58;;;15.35;;
26756;SDS011;23848;49.798;10.228;2022-12-11T08:17:59;25.77;;;15.40;;
26756;SDS011;23848;49.798;10.228;2022-12-11T08:20:30;25.38;;;13.90;;
26756;SDS011;23848;49.798;10.228;2022-12-11T08:22:59;27.00;;;14.45;;
26756;SDS011;23848;49.798;10.228;2022-12-11T08:25:28;23.77;;;13.90;;
26756;SDS011;23848;49.798;10.228;2022-12-11T08:28:00;24.58;;;13.73;;
26756;SDS011;23848;49.798;10.228;2022-12-11T08:30:28;25.58;;;14.15;;
26756;SDS011;23848;49.798;10.228;2022-12-11T08:32:58;22.27;;;12.40;;
26756;SDS011;23848;49.798;10.228;2022-12-11T08:35:27;21.83;;;12.50;;
26756;SDS011;23848;49.798;10.228;2022-12-11T08:37:57;25.13;;;13.85;;
26756;SDS011;23848;49.798;10.228;2022-12-11T08:40:26;19.52;;;12.05;;
26756;SDS011;23848;49.798;10.228;2022-12-11T08:43:00;19.75;;;11.20;;
26756;SDS011;23848;49.798;10.228;2022-12-11T08:45:29;19.63;;;10.48;;
26756;SDS011;23848;49.798;10.228;2022-12-11T08:48:00;19.40;;;9.95;;
26756;SDS011;23848;49.798;10.228;2022-12-11T08:50:28;18.88;;;10.63;;
26756;SDS011;23848;49.798;10.228;2022-12-11T08:52:59;19.02;;;9.85;;
26756;SDS011;23848;49.798;10.228;2022-12-11T08:55:28;20.77;;;10.00;;
26756;SDS011;23848;49.798;10.228;2022-12-11T08:57:56;17.70;;;11.32;;
26756;SDS011;23848;49.798;10.228;2022-12-11T09:00:25;16.73;;;9.88;;
26756;SDS011;23848;49.798;10.228;2022-12-11T09:02:53;17.27;;;10.05;;
26756;SDS011;23848;49.798;10.228;2022-12-11T09:05:26;16.40;;;9.63;;
26756;SDS011;23848;49.798;10.228;2022-12-11T09:07:56;16.05;;;9.45;;
26756;SDS011;23848;49.798;10.228;2022-12-11T09:10:25;16.88;;;9.18;;
26756;SDS011;23848;49.798;10.228;2022-12-11T09:12:54;19.02;;;9.30;;
26756;SDS011;23848;49.798;10.228;2022-12-11T09:15:30;17.83;;;10.30;;
26756;SDS011;23848;49.798;10.228;2022-12-11T09:17:59;17.75;;;10.75;;
26756;SDS011;23848;49.798;10.228;2022-12-11T09:20:29;18.85;;;10.55;;
26756;SDS011;23848;49.798;10.228;2022-12-11T09:22:58;15.55;;;9.93;;
26756;SDS011;23848;49.798;10.228;2022-12-11T09:25:26;16.08;;;9.65;;
26756;SDS011;23848;49.798;10.228;2022-12-11T09:27:57;16.30;;;9.48;;
26756;SDS011;23848;49.798;10.228;2022-12-11T09:30:29;21.38;;;11.55;;
26756;SDS011;23848;49.798;10.228;2022-12-11T09:33:04;18.05;;;9.85;;
26756;SDS011;23848;49.798;10.228;2022-12-11T09:35:41;18.40;;;10.30;;
26756;SDS011;23848;49.798;10.228;2022-12-11T09:38:23;17.77;;;10.48;;
26756;SDS011;23848;49.798;10.228;2022-12-11T09:40:54;19.38;;;11.15;;
26756;SDS011;23848;49.798;10.228;2022-12-11T09:43:29;21.45;;;10.18;;
26756;SDS011;23848;49.798;10.228;2022-12-11T09:46:03;19.83;;;10.88;;
26756;SDS011;23848;49.798;10.228;2022-12-11T09:48:33;18.98;;;10.48;;
26756;SDS011;23848;49.798;10.228;2022-12-11T09:51:07;18.83;;;10.73;;
26756;SDS011;23848;49.798;10.228;2022-12-11T09:53:40;17.77;;;10.50;;
26756;SDS011;23848;49.798;10.228;2022-12-11T09:56:14;15.88;;;9.57;;
26756;SDS011;23848;49.798;10.228;2022-12-11T10:01:25;17.65;;;9.68;;
26756;SDS011;23848;49.798;10.228;2022-12-11T10:04:13;17.02;;;8.38;;
26756;SDS011;23848;49.798;10.228;2022-12-11T10:07:03;16.92;;;8.80;;
26756;SDS011;23848;49.798;10.228;2022-12-11T10:09:40;17.60;;;10.15;;
26756;SDS011;23848;49.798;10.228;2022-12-11T10:12:14;16.17;;;9.53;;
26756;SDS011;23848;49.798;10.228;2022-12-11T10:14:48;16.05;;;10.10;;
26756;SDS011;23848;49.798;10.228;2022-12-11T10:17:35;15.68;;;9.05;;
26756;SDS011;23848;49.798;10.228;2022-12-11T10:20:16;16.55;;;9.10;;
26756;SDS011;23848;49.798;10.228;2022-12-11T10:23:00;15.40;;;9.15;;
26756;SDS011;23848;49.798;10.228;2022-12-11T10:26:19;14.35;;;8.70;;
26756;SDS011;23848;49.798;10.228;2022-12-11T10:28:50;16.15;;;9.75;;
26756;SDS011;23848;49.798;10.228;2022-12-11T10:31:19;16.30;;;9.07;;
26756;SDS011;23848;49.798;10.228;2022-12-11T10:33:53;16.48;;;9.57;;
26756;SDS011;23848;49.798;10.228;2022-12-11T10:36:26;17.70;;;9.43;;
26756;SDS011;23848;49.798;10.228;2022-12-11T10:41:49;15.85;;;9.05;;
26756;SDS011;23848;49.798;10.228;2022-12-11T10:44:23;14.20;;;8.77;;
26756;SDS011;23848;49.798;10.228;2022-12-11T10:47:03;16.52;;;8.60;;
26756;SDS011;23848;49.798;10.228;2022-12-11T10:49:32;18.17;;;10.73;;
26756;SDS011;23848;49.798;10.228;2022-12-11T10:52:10;17.27;;;10.02;;
26756;SDS011;23848;49.798;10.228;2022-12-11T10:54:43;17.25;;;10.50;;
26756;SDS011;23848;49.798;10.228;2022-12-11T10:57:29;14.45;;;8.60;;
26756;SDS011;23848;49.798;10.228;2022-12-11T11:00:25;16.50;;;9.07;;
26756;SDS011;23848;49.798;10.228;2022-12-11T11:03:01;16.35;;;9.57;;
26756;SDS011;23848;49.798;10.228;2022-12-11T11:05:34;15.07;;;8.40;;
26756;SDS011;23848;49.798;10.228;2022-12-11T11:08:16;14.65;;;9.85;;
26756;SDS011;23848;49.798;10.228;2022-12-11T11:10:49;15.07;;;9.80;;
26756;SDS011;23848;49.798;10.228;2022-12-11T11:13:22;15.85;;;9.40;;
26756;SDS011;23848;49.798;10.228;2022-12-11T11:15:58;15.48;;;8.77;;
26756;SDS011;23848;49.798;10.228;2022-12-11T11:18:29;15.40;;;8.27;;
26756;SDS011;23848;49.798;10.228;2022-12-11T11:21:00;15.55;;;8.93;;
26756;SDS011;23848;49.798;10.228;2022-12-11T11:23:35;14.90;;;8.13;;
26756;SDS011;23848;49.798;10.228;2022-12-11T11:26:12;18.77;;;10.35;;
26756;SDS011;23848;49.798;10.228;2022-12-11T11:28:46;23.75;;;12.35;;
26756;SDS011;23848;49.798;10.228;2022-12-11T11:31:21;17.08;;;10.43;;
26756;SDS011;23848;49.798;10.228;2022-12-11T11:33:58;15.00;;;9.27;;
26756;SDS011;23848;49.798;10.228;2022-12-11T11:36:30;11.88;;;7.72;;
26756;SDS011;23848;49.798;10.228;2022-12-11T11:39:05;14.13;;;8.38;;
26756;SDS011;23848;49.798;10.228;2022-12-11T11:41:45;11.77;;;7.50;;
26756;SDS011;23848;49.798;10.228;2022-12-11T11:44:25;12.70;;;7.72;;
26756;SDS011;23848;49.798;10.228;2022-12-11T11:47:08;16.25;;;9.50;;
26756;SDS011;23848;49.798;10.228;2022-12-11T11:49:43;9.75;;;6.38;;
26756;SDS011;23848;49.798;10.228;2022-12-11T11:52:16;20.25;;;12.80;;
26756;SDS011;23848;49.798;10.228;2022-12-11T11:54:51;18.52;;;10.27;;
26756;SDS011;23848;49.798;10.228;2022-12-11T11:57:45;21.00;;;11.43;;
26756;SDS011;23848;49.798;10.228;2022-12-11T12:00:28;23.45;;;13.38;;
26756;SDS011;23848;49.798;10.228;2022-12-11T12:03:08;34.53;;;15.93;;
26756;SDS011;23848;49.798;10.228;2022-12-11T12:05:38;67.88;;;27.58;;
26756;SDS011;23848;49.798;10.228;2022-12-11T12:08:16;38.50;;;18.08;;
26756;SDS011;23848;49.798;10.228;2022-12-11T12:10:50;24.50;;;14.27;;
26756;SDS011;23848;49.798;10.228;2022-12-11T12:13:24;20.25;;;11.77;;
26756;SDS011;23848;49.798;10.228;2022-12-11T12:16:21;16.95;;;9.82;;
26756;SDS011;23848;49.798;10.228;2022-12-11T12:19:14;18.02;;;10.98;;
26756;SDS011;23848;49.798;10.228;2022-12-11T12:21:46;16.98;;;10.00;;
26756;SDS011;23848;49.798;10.228;2022-12-11T12:24:21;21.98;;;11.93;;
26756;SDS011;23848;49.798;10.228;2022-12-11T12:26:52;18.98;;;10.35;;
26756;SDS011;23848;49.798;10.228;2022-12-11T12:29:26;15.02;;;9.32;;
26756;SDS011;23848;49.798;10.228;2022-12-11T12:32:02;17.10;;;9.18;;
26756;SDS011;23848;49.798;10.228;2022-12-11T12:34:38;14.90;;;9.07;;
26756;SDS011;23848;49.798;10.228;2022-12-11T12:37:11;15.63;;;9.57;;
26756;SDS011;23848;49.798;10.228;2022-12-11T12:39:45;15.73;;;9.65;;
26756;SDS011;23848;49.798;10.228;2022-12-11T12:42:18;16.27;;;9.05;;
26756;SDS011;23848;49.798;10.228;2022-12-11T12:44:57;16.08;;;10.07;;
26756;SDS011;23848;49.798;10.228;2022-12-11T12:47:29;22.23;;;13.00;;
26756;SDS011;23848;49.798;10.228;2022-12-11T12:50:00;14.93;;;9.25;;
26756;SDS011;23848;49.798;10.228;2022-12-11T12:52:30;12.07;;;8.45;;
26756;SDS011;23848;49.798;10.228;2022-12-11T12:55:00;15.88;;;8.60;;
26756;SDS011;23848;49.798;10.228;2022-12-11T12:57:49;16.45;;;10.02;;
26756;SDS011;23848;49.798;10.228;2022-12-11T13:00:27;13.75;;;8.45;;
26756;SDS011;23848;49.798;10.228;2022-12-11T13:03:11;18.55;;;10.80;;
26756;SDS011;23848;49.798;10.228;2022-12-11T13:06:09;17.17;;;9.05;;
26756;SDS011;23848;49.798;10.228;2022-12-11T13:11:14;16.58;;;8.57;;
26756;SDS011;23848;49.798;10.228;2022-12-11T13:13:46;13.75;;;7.90;;
26756;SDS011;23848;49.798;10.228;2022-12-11T13:16:26;15.15;;;9.05;;
26756;SDS011;23848;49.798;10.228;2022-12-11T13:19:04;15.07;;;8.90;;
26756;SDS011;23848;49.798;10.228;2022-12-11T13:22:23;13.63;;;7.45;;
26756;SDS011;23848;49.798;10.228;2022-12-11T13:24:58;14.93;;;8.05;;
26756;SDS011;23848;49.798;10.228;2022-12-11T13:27:37;13.13;;;7.65;;
26756;SDS011;23848;49.798;10.228;2022-12-11T13:30:19;11.75;;;7.38;;
26756;SDS011;23848;49.798;10.228;2022-12-11T13:32:53;14.18;;;7.57;;
26756;SDS011;23848;49.798;10.228;2022-12-11T13:35:32;14.45;;;6.93;;
26756;SDS011;23848;49.798;10.228;2022-12-11T13:38:05;12.30;;;7.30;;
26756;SDS011;23848;49.798;10.228;2022-12-11T13:40:37;10.68;;;6.13;;
26756;SDS011;23848;49.798;10.228;2022-12-11T13:43:21;12.95;;;7.72;;
26756;SDS011;23848;49.798;10.228;2022-12-11T13:45:56;13.75;;;7.90;;
26756;SDS011;23848;49.798;10.228;2022-12-11T13:51:17;15.52;;;9.02;;
26756;SDS011;23848;49.798;10.228;2022-12-11T13:53:46;19.13;;;11.15;;
26756;SDS011;23848;49.798;10.228;2022-12-11T13:56:18;13.60;;;8.02;;
26756;SDS011;23848;49.798;10.228;2022-12-11T13:58:50;13.23;;;7.53;;
26756;SDS011;23848;49.798;10.228;2022-12-11T14:01:23;15.27;;;8.68;;
26756;SDS011;23848;49.798;10.228;2022-12-11T14:03:55;16.30;;;8.77;;
26756;SDS011;23848;49.798;10.228;2022-12-11T14:06:31;13.68;;;7.55;;
26756;SDS011;23848;49.798;10.228;2022-12-11T14:09:00;13.43;;;8.10;;
26756;SDS011;23848;49.798;10.228;2022-12-11T14:11:36;16.27;;;9.48;;
26756;SDS011;23848;49.798;10.228;2022-12-11T14:14:27;24.02;;;12.65;;
26756;SDS011;23848;49.798;10.228;2022-12-11T14:16:58;67.00;;;23.58;;
26756;SDS011;23848;49.798;10.228;2022-12-11T14:19:31;30.83;;;15.87;;
26756;SDS011;23848;49.798;10.228;2022-12-11T14:22:04;28.90;;;16.42;;
26756;SDS011;23848;49.798;10.228;2022-12-11T14:24:36;19.02;;;10.98;;
26756;SDS011;23848;49.798;10.228;2022-12-11T14:27:15;15.75;;;9.57;;
26756;SDS011;23848;49.798;10.228;2022-12-11T14:29:46;16.38;;;9.73;;
26756;SDS011;23848;49.798;10.228;2022-12-11T14:32:18;15.00;;;8.25;;
26756;SDS011;23848;49.798;10.228;2022-12-11T14:34:47;15.10;;;8.73;;
26756;SDS011;23848;49.798;10.228;2022-12-11T14:37:18;15.52;;;10.25;;
26756;SDS011;23848;49.798;10.228;2022-12-11T14:39:55;17.30;;;11.38;;
26756;SDS011;23848;49.798;10.228;2022-12-11T14:42:27;15.60;;;9.73;;
26756;SDS011;23848;49.798;10.228;2022-12-11T14:45:15;13.25;;;8.68;;
26756;SDS011;23848;49.798;10.228;2022-12-11T14:47:46;14.18;;;9.18;;
26756;SDS011;23848;49.798;10.228;2022-12-11T14:50:17;13.65;;;8.90;;
26756;SDS011;23848;49.798;10.228;2022-12-11T14:53:07;15.95;;;9.00;;